St Paul Downtown Holman Field
KSTP : now visible

Airfield :











YOU CAN JOIN US ON...

 
LOGIN :

Register | Disclaimer

   EN    FR    IT 

 









Legend :    VFR   Marginal VFR   IFR   Intensive IFR   Very Intensive IFR
Visi :
Ceiling :
>= 8 km
>= 3000ft
5 to 8 km
1000 to 3000 ft
1500m to 5 km
500 to 1000 ft
800 to 1500m
200 to 500 ft
< 800m
< 200 ft
Symbols :   Thunderstorms  Fog  Heavy snow  Heavy precipitations  Wind > 20 kt






- Airport Elevation : 705 ft
- IATA code : STP


KSTP - St Paul Downtown Holman Field

CURRENT METAR :
  • 250353Z AUTO 28010G23KT 10SM SCT040 11/03 A2977 RMK AO2 PK WND 28029/0310 SLP081 T01060028

EXPIRED METARs :
  • 250253Z AUTO 29020G31KT 10SM FEW041 12/03 A2975 RMK AO2 PK WND 28031/0245 SLP072 T01170033 51040
  • 250153Z 26015G24KT 10SM OVC040 13/04 A2971 RMK AO2 PK WND 26030/0105 SLP059 T01280044
  • 250053Z 25017G28KT 10SM BKN042 BKN049 14/06 A2967 RMK AO2 PK WND 23030/2358 SLP045 T01390056
  • 242353Z 25015G24KT 10SM OVC044 16/08 A2963 RMK AO2 PK WND 24031/2254 SLP029 T01610078 10233 20161 51030

Expired Forecast.
KZMP FIR / North America



MET'MAP, your aeronautical weather chart ! - Copyright ORBIFLY December 2007 - Disclaimer

ORBIFLY MET'MAP TEAM :

Programming & Development : Alexandra Zaïnal
Original concept : Baudouin d'Aumeries
Technical & hardware support : Manuel Goepfert
Assistance : Marc-Olivier Méhu




SOURCES & CREDITS :

   NOAA       Earth
Advisory